sensor_id;sensor_type;location;lat;lon;timestamp;temperature;humidity
28159;DHT22;15447;50.828;4.406;2023-09-30T05:31:18;13.50;99.90
28159;DHT22;15447;50.828;4.406;2023-09-30T05:33:45;13.50;99.90
28159;DHT22;15447;50.828;4.406;2023-09-30T05:36:10;13.50;99.90
28159;DHT22;15447;50.828;4.406;2023-09-30T05:38:39;13.60;99.90
28159;DHT22;15447;50.828;4.406;2023-09-30T05:41:08;13.60;99.90
28159;DHT22;15447;50.828;4.406;2023-09-30T05:43:34;13.60;99.90
28159;DHT22;15447;50.828;4.406;2023-09-30T05:45:59;13.60;99.90
28159;DHT22;15447;50.828;4.406;2023-09-30T05:48:25;13.60;99.90
28159;DHT22;15447;50.828;4.406;2023-09-30T05:50:53;13.60;99.90
28159;DHT22;15447;50.828;4.406;2023-09-30T05:53:18;13.60;99.90
28159;DHT22;15447;50.828;4.406;2023-09-30T05:55:46;13.60;99.90
28159;DHT22;15447;50.828;4.406;2023-09-30T05:58:13;13.70;99.90
28159;DHT22;15447;50.828;4.406;2023-09-30T06:00:43;13.80;99.90
28159;DHT22;15447;50.828;4.406;2023-09-30T06:03:09;13.80;99.90
28159;DHT22;15447;50.828;4.406;2023-09-30T06:05:44;13.90;99.90
28159;DHT22;15447;50.828;4.406;2023-09-30T06:08:15;13.90;99.90
28159;DHT22;15447;50.828;4.406;2023-09-30T06:10:42;14.00;99.90
28159;DHT22;15447;50.828;4.406;2023-09-30T06:13:14;14.00;99.90
28159;DHT22;15447;50.828;4.406;2023-09-30T06:15:41;14.10;99.90
28159;DHT22;15447;50.828;4.406;2023-09-30T06:18:09;14.10;99.90
28159;DHT22;15447;50.828;4.406;2023-09-30T06:20:37;14.20;99.90
28159;DHT22;15447;50.828;4.406;2023-09-30T06:23:03;14.30;99.90
28159;DHT22;15447;50.828;4.406;2023-09-30T06:25:31;14.40;99.90
28159;DHT22;15447;50.828;4.406;2023-09-30T06:28:07;14.60;99.90
28159;DHT22;15447;50.828;4.406;2023-09-30T06:30:39;14.90;99.90
28159;DHT22;15447;50.828;4.406;2023-09-30T06:33:09;15.30;99.90
28159;DHT22;15447;50.828;4.406;2023-09-30T06:35:52;15.90;99.90
28159;DHT22;15447;50.828;4.406;2023-09-30T06:38:21;16.80;99.90
28159;DHT22;15447;50.828;4.406;2023-09-30T06:40:49;17.50;99.90
28159;DHT22;15447;50.828;4.406;2023-09-30T06:43:15;18.30;99.90
28159;DHT22;15447;50.828;4.406;2023-09-30T06:45:45;19.00;99.90
28159;DHT22;15447;50.828;4.406;2023-09-30T06:48:12;19.70;99.90
28159;DHT22;15447;50.828;4.406;2023-09-30T06:50:47;20.40;99.90
28159;DHT22;15447;50.828;4.406;2023-09-30T06:53:18;21.10;99.90
28159;DHT22;15447;50.828;4.406;2023-09-30T06:55:46;21.70;99.90
28159;DHT22;15447;50.828;4.406;2023-09-30T06:58:12;22.40;99.90
28159;DHT22;15447;50.828;4.406;2023-09-30T07:00:43;23.00;99.90
28159;DHT22;15447;50.828;4.406;2023-09-30T07:03:19;23.50;99.90
28159;DHT22;15447;50.828;4.406;2023-09-30T07:05:54;23.90;99.90
28159;DHT22;15447;50.828;4.406;2023-09-30T07:08:32;23.90;99.90
28159;DHT22;15447;50.828;4.406;2023-09-30T07:11:00;24.00;99.90
28159;DHT22;15447;50.828;4.406;2023-09-30T07:13:34;24.20;99.90
28159;DHT22;15447;50.828;4.406;2023-09-30T07:16:04;24.70;99.90
28159;DHT22;15447;50.828;4.406;2023-09-30T07:18:31;25.10;99.90
28159;DHT22;15447;50.828;4.406;2023-09-30T07:20:56;25.30;99.90
28159;DHT22;15447;50.828;4.406;2023-09-30T07:23:24;25.50;99.90
28159;DHT22;15447;50.828;4.406;2023-09-30T07:25:50;25.60;99.90
28159;DHT22;15447;50.828;4.406;2023-09-30T07:28:15;25.50;99.90
28159;DHT22;15447;50.828;4.406;2023-09-30T07:30:41;25.60;99.90
28159;DHT22;15447;50.828;4.406;2023-09-30T07:33:07;25.70;99.90
28159;DHT22;15447;50.828;4.406;2023-09-30T07:35:33;26.10;99.90
28159;DHT22;15447;50.828;4.406;2023-09-30T07:37:58;26.30;99.90
28159;DHT22;15447;50.828;4.406;2023-09-30T07:40:24;26.30;99.90
28159;DHT22;15447;50.828;4.406;2023-09-30T07:42:50;26.40;99.90
28159;DHT22;15447;50.828;4.406;2023-09-30T07:45:16;26.60;99.90
28159;DHT22;15447;50.828;4.406;2023-09-30T07:47:44;26.90;99.90
28159;DHT22;15447;50.828;4.406;2023-09-30T07:50:12;27.20;99.90
28159;DHT22;15447;50.828;4.406;2023-09-30T07:52:38;27.70;99.90
28159;DHT22;15447;50.828;4.406;2023-09-30T07:55:08;28.00;99.90
28159;DHT22;15447;50.828;4.406;2023-09-30T07:57:34;28.50;99.40
28159;DHT22;15447;50.828;4.406;2023-09-30T08:00:02;28.60;98.50
28159;DHT22;15447;50.828;4.406;2023-09-30T08:02:34;29.10;97.80
28159;DHT22;15447;50.828;4.406;2023-09-30T08:04:59;28.90;97.20
28159;DHT22;15447;50.828;4.406;2023-09-30T08:07:26;29.10;97.10
28159;DHT22;15447;50.828;4.406;2023-09-30T08:09:51;29.30;96.60
28159;DHT22;15447;50.828;4.406;2023-09-30T08:12:17;29.40;96.10
28159;DHT22;15447;50.828;4.406;2023-09-30T08:14:45;29.60;95.70
28159;DHT22;15447;50.828;4.406;2023-09-30T08:17:13;29.60;95.40
28159;DHT22;15447;50.828;4.406;2023-09-30T08:19:42;29.90;95.00
28159;DHT22;15447;50.828;4.406;2023-09-30T08:22:15;30.20;94.60
28159;DHT22;15447;50.828;4.406;2023-09-30T08:24:41;30.80;93.80
28159;DHT22;15447;50.828;4.406;2023-09-30T08:27:07;31.20;92.80
28159;DHT22;15447;50.828;4.406;2023-09-30T08:29:34;31.50;92.10
28159;DHT22;15447;50.828;4.406;2023-09-30T08:32:04;32.00;91.50
28159;DHT22;15447;50.828;4.406;2023-09-30T08:34:30;32.70;90.50
28159;DHT22;15447;50.828;4.406;2023-09-30T08:36:58;33.30;89.30
28159;DHT22;15447;50.828;4.406;2023-09-30T08:39:24;33.60;87.50
28159;DHT22;15447;50.828;4.406;2023-09-30T08:41:50;33.20;85.70
28159;DHT22;15447;50.828;4.406;2023-09-30T08:44:25;32.70;86.80
28159;DHT22;15447;50.828;4.406;2023-09-30T08:46:52;32.50;87.30
28159;DHT22;15447;50.828;4.406;2023-09-30T08:49:19;32.50;86.20
28159;DHT22;15447;50.828;4.406;2023-09-30T08:51:48;32.00;86.60
28159;DHT22;15447;50.828;4.406;2023-09-30T08:54:27;32.20;87.00
28159;DHT22;15447;50.828;4.406;2023-09-30T08:57:04;32.30;86.70
28159;DHT22;15447;50.828;4.406;2023-09-30T08:59:34;32.50;85.60
28159;DHT22;15447;50.828;4.406;2023-09-30T09:02:01;32.10;84.90
28159;DHT22;15447;50.828;4.406;2023-09-30T09:04:27;31.70;86.00
28159;DHT22;15447;50.828;4.406;2023-09-30T09:07:01;31.10;86.60
28159;DHT22;15447;50.828;4.406;2023-09-30T09:09:26;30.80;88.20
28159;DHT22;15447;50.828;4.406;2023-09-30T09:11:52;30.60;88.20
28159;DHT22;15447;50.828;4.406;2023-09-30T09:14:18;30.70;88.60
28159;DHT22;15447;50.828;4.406;2023-09-30T09:16:53;30.90;87.50
28159;DHT22;15447;50.828;4.406;2023-09-30T09:19:19;31.00;88.30
28159;DHT22;15447;50.828;4.406;2023-09-30T09:21:57;31.30;88.30
28159;DHT22;15447;50.828;4.406;2023-09-30T09:24:41;31.50;87.30
28159;DHT22;15447;50.828;4.406;2023-09-30T09:29:38;31.10;85.80
28159;DHT22;15447;50.828;4.406;2023-09-30T09:32:12;30.50;86.80
28159;DHT22;15447;50.828;4.406;2023-09-30T09:34:42;30.60;88.20
28159;DHT22;15447;50.828;4.406;2023-09-30T09:37:19;30.90;87.10
28159;DHT22;15447;50.828;4.406;2023-09-30T09:39:53;30.80;85.90
28159;DHT22;15447;50.828;4.406;2023-09-30T09:42:31;30.80;86.40
28159;DHT22;15447;50.828;4.406;2023-09-30T09:45:01;30.70;86.40
28159;DHT22;15447;50.828;4.406;2023-09-30T09:47:29;31.20;86.70
28159;DHT22;15447;50.828;4.406;2023-09-30T09:49:57;31.80;84.70
28159;DHT22;15447;50.828;4.406;2023-09-30T09:52:24;32.10;82.60
28159;DHT22;15447;50.828;4.406;2023-09-30T09:54:50;32.10;82.90
28159;DHT22;15447;50.828;4.406;2023-09-30T09:57:17;31.90;82.90
28159;DHT22;15447;50.828;4.406;2023-09-30T09:59:44;31.80;83.00
28159;DHT22;15447;50.828;4.406;2023-09-30T10:02:15;32.00;83.30
28159;DHT22;15447;50.828;4.406;2023-09-30T10:04:42;32.30;82.90
28159;DHT22;15447;50.828;4.406;2023-09-30T10:07:12;32.60;82.10
28159;DHT22;15447;50.828;4.406;2023-09-30T10:09:44;32.70;80.50
28159;DHT22;15447;50.828;4.406;2023-09-30T10:12:12;32.70;80.60
28159;DHT22;15447;50.828;4.406;2023-09-30T10:14:38;33.00;79.90
28159;DHT22;15447;50.828;4.406;2023-09-30T10:17:09;33.00;79.90
28159;DHT22;15447;50.828;4.406;2023-09-30T10:19:35;32.50;79.90
28159;DHT22;15447;50.828;4.406;2023-09-30T10:24:45;30.70;83.60
28159;DHT22;15447;50.828;4.406;2023-09-30T10:30:09;29.70;86.70
28159;DHT22;15447;50.828;4.406;2023-09-30T10:37:52;30.00;85.60
28159;DHT22;15447;50.828;4.406;2023-09-30T10:40:40;30.30;84.20
28159;DHT22;15447;50.828;4.406;2023-09-30T10:43:29;31.10;83.50
28159;DHT22;15447;50.828;4.406;2023-09-30T10:46:01;31.70;80.50
28159;DHT22;15447;50.828;4.406;2023-09-30T10:51:12;31.00;81.10
28159;DHT22;15447;50.828;4.406;2023-09-30T10:53:43;31.20;81.60
28159;DHT22;15447;50.828;4.406;2023-09-30T10:56:08;32.00;80.30
28159;DHT22;15447;50.828;4.406;2023-09-30T10:58:48;32.00;79.50
28159;DHT22;15447;50.828;4.406;2023-09-30T11:01:21;32.40;79.90
28159;DHT22;15447;50.828;4.406;2023-09-30T11:04:06;32.40;78.10
28159;DHT22;15447;50.828;4.406;2023-09-30T11:06:41;31.70;79.40
28159;DHT22;15447;50.828;4.406;2023-09-30T11:09:22;31.30;80.50
28159;DHT22;15447;50.828;4.406;2023-09-30T11:12:12;30.60;81.30
28159;DHT22;15447;50.828;4.406;2023-09-30T11:14:46;29.70;82.70
28159;DHT22;15447;50.828;4.406;2023-09-30T11:17:27;29.00;85.30
28159;DHT22;15447;50.828;4.406;2023-09-30T11:20:04;28.70;85.50
28159;DHT22;15447;50.828;4.406;2023-09-30T11:22:32;28.30;86.50
28159;DHT22;15447;50.828;4.406;2023-09-30T11:25:02;27.90;86.70
28159;DHT22;15447;50.828;4.406;2023-09-30T11:27:28;28.00;87.90
28159;DHT22;15447;50.828;4.406;2023-09-30T11:30:12;29.10;85.40
28159;DHT22;15447;50.828;4.406;2023-09-30T11:32:41;30.00;83.00
28159;DHT22;15447;50.828;4.406;2023-09-30T11:35:22;29.60;82.10
28159;DHT22;15447;50.828;4.406;2023-09-30T11:37:48;29.10;82.90
28159;DHT22;15447;50.828;4.406;2023-09-30T11:40:17;28.90;83.80
28159;DHT22;15447;50.828;4.406;2023-09-30T11:43:10;28.80;83.90
28159;DHT22;15447;50.828;4.406;2023-09-30T11:45:37;29.20;82.30
28159;DHT22;15447;50.828;4.406;2023-09-30T11:48:18;29.10;82.60
28159;DHT22;15447;50.828;4.406;2023-09-30T11:50:48;28.80;80.50
28159;DHT22;15447;50.828;4.406;2023-09-30T11:53:20;28.40;81.60
28159;DHT22;15447;50.828;4.406;2023-09-30T11:55:54;29.00;81.80
28159;DHT22;15447;50.828;4.406;2023-09-30T11:58:23;30.30;79.60
28159;DHT22;15447;50.828;4.406;2023-09-30T12:01:18;31.10;78.20
28159;DHT22;15447;50.828;4.406;2023-09-30T12:04:24;31.60;76.60
28159;DHT22;15447;50.828;4.406;2023-09-30T12:07:13;32.60;75.00
28159;DHT22;15447;50.828;4.406;2023-09-30T12:09:55;33.40;72.90
28159;DHT22;15447;50.828;4.406;2023-09-30T12:15:19;34.30;68.90
28159;DHT22;15447;50.828;4.406;2023-09-30T12:17:48;34.10;67.20
28159;DHT22;15447;50.828;4.406;2023-09-30T12:20:13;34.30;67.20
28159;DHT22;15447;50.828;4.406;2023-09-30T12:22:43;33.10;68.90
28159;DHT22;15447;50.828;4.406;2023-09-30T12:25:09;32.40;70.50
28159;DHT22;15447;50.828;4.406;2023-09-30T12:27:34;32.40;72.50
28159;DHT22;15447;50.828;4.406;2023-09-30T12:30:03;32.80;71.70
28159;DHT22;15447;50.828;4.406;2023-09-30T12:32:29;33.40;70.80
28159;DHT22;15447;50.828;4.406;2023-09-30T12:34:55;33.80;68.40
28159;DHT22;15447;50.828;4.406;2023-09-30T12:37:21;32.90;68.10
28159;DHT22;15447;50.828;4.406;2023-09-30T12:39:56;32.50;69.50
28159;DHT22;15447;50.828;4.406;2023-09-30T12:42:25;32.20;69.70
28159;DHT22;15447;50.828;4.406;2023-09-30T12:44:50;32.00;70.30
28159;DHT22;15447;50.828;4.406;2023-09-30T12:47:16;32.20;70.70
28159;DHT22;15447;50.828;4.406;2023-09-30T12:49:41;32.40;70.80
28159;DHT22;15447;50.828;4.406;2023-09-30T12:52:07;32.40;69.10
28159;DHT22;15447;50.828;4.406;2023-09-30T12:54:33;32.60;69.70
28159;DHT22;15447;50.828;4.406;2023-09-30T12:56:59;32.60;69.80
28159;DHT22;15447;50.828;4.406;2023-09-30T12:59:25;32.90;69.50
28159;DHT22;15447;50.828;4.406;2023-09-30T13:01:54;32.50;68.20
28159;DHT22;15447;50.828;4.406;2023-09-30T13:04:20;31.50;70.10
28159;DHT22;15447;50.828;4.406;2023-09-30T13:06:45;31.00;71.40
28159;DHT22;15447;50.828;4.406;2023-09-30T13:09:11;30.30;72.20
28159;DHT22;15447;50.828;4.406;2023-09-30T13:11:37;30.60;73.00
28159;DHT22;15447;50.828;4.406;2023-09-30T13:14:09;31.30;73.10
28159;DHT22;15447;50.828;4.406;2023-09-30T13:16:51;31.50;71.90
28159;DHT22;15447;50.828;4.406;2023-09-30T13:19:22;31.60;71.20
28159;DHT22;15447;50.828;4.406;2023-09-30T13:21:53;32.20;69.00
28159;DHT22;15447;50.828;4.406;2023-09-30T13:24:22;32.40;67.70
28159;DHT22;15447;50.828;4.406;2023-09-30T13:26:57;32.40;67.30
28159;DHT22;15447;50.828;4.406;2023-09-30T13:29:23;31.70;66.40
28159;DHT22;15447;50.828;4.406;2023-09-30T13:32:08;31.40;67.80
28159;DHT22;15447;50.828;4.406;2023-09-30T13:34:37;31.80;67.50
28159;DHT22;15447;50.828;4.406;2023-09-30T13:37:12;32.50;68.10
28159;DHT22;15447;50.828;4.406;2023-09-30T13:39:37;33.30;67.60
28159;DHT22;15447;50.828;4.406;2023-09-30T13:42:06;33.60;67.30
28159;DHT22;15447;50.828;4.406;2023-09-30T13:44:33;33.00;67.00
28159;DHT22;15447;50.828;4.406;2023-09-30T13:47:01;31.60;68.90
28159;DHT22;15447;50.828;4.406;2023-09-30T13:49:28;31.40;71.60
28159;DHT22;15447;50.828;4.406;2023-09-30T13:51:56;31.40;70.80
28159;DHT22;15447;50.828;4.406;2023-09-30T13:54:21;31.80;70.00
28159;DHT22;15447;50.828;4.406;2023-09-30T13:56:47;31.80;69.40
28159;DHT22;15447;50.828;4.406;2023-09-30T13:59:27;31.80;68.60
28159;DHT22;15447;50.828;4.406;2023-09-30T14:01:56;31.80;68.10
28159;DHT22;15447;50.828;4.406;2023-09-30T14:04:22;32.10;69.10
28159;DHT22;15447;50.828;4.406;2023-09-30T14:06:48;31.50;68.30
28159;DHT22;15447;50.828;4.406;2023-09-30T14:09:19;31.40;68.40
28159;DHT22;15447;50.828;4.406;2023-09-30T14:11:44;30.60;68.80
28159;DHT22;15447;50.828;4.406;2023-09-30T14:14:10;30.20;70.40
28159;DHT22;15447;50.828;4.406;2023-09-30T14:16:36;29.50;71.10
28159;DHT22;15447;50.828;4.406;2023-09-30T14:19:02;28.50;74.90
28159;DHT22;15447;50.828;4.406;2023-09-30T14:21:29;28.20;75.00
28159;DHT22;15447;50.828;4.406;2023-09-30T14:23:57;28.10;75.10
28159;DHT22;15447;50.828;4.406;2023-09-30T14:26:23;28.10;74.30
28159;DHT22;15447;50.828;4.406;2023-09-30T14:28:49;27.90;75.00
28159;DHT22;15447;50.828;4.406;2023-09-30T14:31:22;27.60;75.00
28159;DHT22;15447;50.828;4.406;2023-09-30T14:33:54;27.60;76.60
28159;DHT22;15447;50.828;4.406;2023-09-30T14:36:20;27.30;77.80
28159;DHT22;15447;50.828;4.406;2023-09-30T14:38:51;26.90;78.50
28159;DHT22;15447;50.828;4.406;2023-09-30T14:41:17;27.00;77.50
28159;DHT22;15447;50.828;4.406;2023-09-30T14:43:43;27.30;77.00
28159;DHT22;15447;50.828;4.406;2023-09-30T14:46:08;27.70;76.40
28159;DHT22;15447;50.828;4.406;2023-09-30T14:48:34;27.70;76.80
28159;DHT22;15447;50.828;4.406;2023-09-30T14:51:01;27.10;77.80
28159;DHT22;15447;50.828;4.406;2023-09-30T14:53:30;26.60;78.60
28159;DHT22;15447;50.828;4.406;2023-09-30T14:55:58;25.90;80.40
28159;DHT22;15447;50.828;4.406;2023-09-30T14:58:24;25.60;80.80
28159;DHT22;15447;50.828;4.406;2023-09-30T15:00:50;25.40;81.50
28159;DHT22;15447;50.828;4.406;2023-09-30T15:03:15;25.20;81.40
28159;DHT22;15447;50.828;4.406;2023-09-30T15:05:41;24.90;81.00
28159;DHT22;15447;50.828;4.406;2023-09-30T15:08:07;24.40;83.10
28159;DHT22;15447;50.828;4.406;2023-09-30T15:10:36;24.20;83.20
28159;DHT22;15447;50.828;4.406;2023-09-30T15:13:01;24.10;84.50
28159;DHT22;15447;50.828;4.406;2023-09-30T15:15:27;24.00;84.30
28159;DHT22;15447;50.828;4.406;2023-09-30T15:17:56;23.80;85.70
28159;DHT22;15447;50.828;4.406;2023-09-30T15:20:21;23.50;87.20
28159;DHT22;15447;50.828;4.406;2023-09-30T15:22:50;23.30;87.90
28159;DHT22;15447;50.828;4.406;2023-09-30T15:25:16;23.30;88.70
28159;DHT22;15447;50.828;4.406;2023-09-30T15:27:43;23.40;89.30
28159;DHT22;15447;50.828;4.406;2023-09-30T15:30:09;23.40;88.80
28159;DHT22;15447;50.828;4.406;2023-09-30T15:32:35;23.30;89.20
28159;DHT22;15447;50.828;4.406;2023-09-30T15:35:02;23.20;90.00
28159;DHT22;15447;50.828;4.406;2023-09-30T15:37:34;23.20;90.00
28159;DHT22;15447;50.828;4.406;2023-09-30T15:39:59;23.20;90.00
28159;DHT22;15447;50.828;4.406;2023-09-30T15:42:25;23.20;90.20
28159;DHT22;15447;50.828;4.406;2023-09-30T15:44:51;23.30;89.30
28159;DHT22;15447;50.828;4.406;2023-09-30T15:47:21;23.20;89.10
28159;DHT22;15447;50.828;4.406;2023-09-30T15:49:47;23.20;89.90
28159;DHT22;15447;50.828;4.406;2023-09-30T15:52:13;23.10;90.30
28159;DHT22;15447;50.828;4.406;2023-09-30T15:54:39;23.10;90.80
28159;DHT22;15447;50.828;4.406;2023-09-30T15:57:05;23.00;90.60
28159;DHT22;15447;50.828;4.406;2023-09-30T15:59:32;23.00;90.90
28159;DHT22;15447;50.828;4.406;2023-09-30T16:01:58;23.10;90.60
28159;DHT22;15447;50.828;4.406;2023-09-30T16:04:26;23.00;90.90
28159;DHT22;15447;50.828;4.406;2023-09-30T16:06:51;22.80;90.90
28159;DHT22;15447;50.828;4.406;2023-09-30T16:09:17;22.80;91.20
28159;DHT22;15447;50.828;4.406;2023-09-30T16:11:46;22.70;91.50
28159;DHT22;15447;50.828;4.406;2023-09-30T16:14:13;22.70;91.60
28159;DHT22;15447;50.828;4.406;2023-09-30T16:16:39;22.70;91.40
28159;DHT22;15447;50.828;4.406;2023-09-30T16:19:04;22.60;91.70
28159;DHT22;15447;50.828;4.406;2023-09-30T16:21:30;22.60;92.00
28159;DHT22;15447;50.828;4.406;2023-09-30T16:23:55;22.60;92.00
28159;DHT22;15447;50.828;4.406;2023-09-30T16:26:21;22.60;91.90
28159;DHT22;15447;50.828;4.406;2023-09-30T16:28:46;22.50;91.70
28159;DHT22;15447;50.828;4.406;2023-09-30T16:31:12;22.30;92.10
28159;DHT22;15447;50.828;4.406;2023-09-30T16:33:38;22.20;92.50
28159;DHT22;15447;50.828;4.406;2023-09-30T16:36:04;21.90;92.50
28159;DHT22;15447;50.828;4.406;2023-09-30T16:38:31;21.60;93.00
28159;DHT22;15447;50.828;4.406;2023-09-30T16:40:57;21.60;93.00
28159;DHT22;15447;50.828;4.406;2023-09-30T16:43:23;21.50;93.20
28159;DHT22;15447;50.828;4.406;2023-09-30T16:45:51;21.60;93.30
28159;DHT22;15447;50.828;4.406;2023-09-30T16:48:19;21.50;93.10
28159;DHT22;15447;50.828;4.406;2023-09-30T16:50:51;21.40;92.90
28159;DHT22;15447;50.828;4.406;2023-09-30T16:53:17;21.40;93.30
28159;DHT22;15447;50.828;4.406;2023-09-30T16:55:45;21.40;93.50
28159;DHT22;15447;50.828;4.406;2023-09-30T16:58:14;21.40;93.70
28159;DHT22;15447;50.828;4.406;2023-09-30T17:00:41;21.40;93.90
28159;DHT22;15447;50.828;4.406;2023-09-30T17:03:14;21.40;93.70
28159;DHT22;15447;50.828;4.406;2023-09-30T17:05:56;21.30;93.80
28159;DHT22;15447;50.828;4.406;2023-09-30T17:08:27;21.30;94.00
28159;DHT22;15447;50.828;4.406;2023-09-30T17:10:58;21.20;94.00
28159;DHT22;15447;50.828;4.406;2023-09-30T17:13:24;21.10;94.00
28159;DHT22;15447;50.828;4.406;2023-09-30T17:15:50;21.10;94.20
28159;DHT22;15447;50.828;4.406;2023-09-30T17:18:16;21.00;94.30
28159;DHT22;15447;50.828;4.406;2023-09-30T17:20:42;20.80;95.20
28159;DHT22;15447;50.828;4.406;2023-09-30T17:23:12;20.60;96.10
28159;DHT22;15447;50.828;4.406;2023-09-30T17:25:38;20.40;96.60
28159;DHT22;15447;50.828;4.406;2023-09-30T17:28:05;20.20;96.80
28159;DHT22;15447;50.828;4.406;2023-09-30T17:30:33;20.10;97.10
28159;DHT22;15447;50.828;4.406;2023-09-30T17:33:00;20.00;97.30
28159;DHT22;15447;50.828;4.406;2023-09-30T17:35:26;20.00;97.50
28159;DHT22;15447;50.828;4.406;2023-09-30T17:37:52;19.90;97.60
28159;DHT22;15447;50.828;4.406;2023-09-30T17:40:17;19.90;97.90
28159;DHT22;15447;50.828;4.406;2023-09-30T17:42:43;19.80;98.40
28159;DHT22;15447;50.828;4.406;2023-09-30T17:45:10;19.80;99.40
28159;DHT22;15447;50.828;4.406;2023-09-30T17:47:38;19.80;99.70
28159;DHT22;15447;50.828;4.406;2023-09-30T17:50:06;19.70;99.90
28159;DHT22;15447;50.828;4.406;2023-09-30T17:52:32;19.70;99.90
28159;DHT22;15447;50.828;4.406;2023-09-30T17:54:58;19.80;99.90
28159;DHT22;15447;50.828;4.406;2023-09-30T17:57:24;19.80;99.90
28159;DHT22;15447;50.828;4.406;2023-09-30T17:59:49;19.80;99.90
28159;DHT22;15447;50.828;4.406;2023-09-30T18:02:15;19.70;99.90
28159;DHT22;15447;50.828;4.406;2023-09-30T18:04:40;19.70;99.90
28159;DHT22;15447;50.828;4.406;2023-09-30T18:07:08;19.70;99.90
28159;DHT22;15447;50.828;4.406;2023-09-30T18:09:34;19.70;99.90
28159;DHT22;15447;50.828;4.406;2023-09-30T18:11:59;19.60;99.90
28159;DHT22;15447;50.828;4.406;2023-09-30T18:14:25;19.60;99.90
28159;DHT22;15447;50.828;4.406;2023-09-30T18:16:50;19.50;99.90
28159;DHT22;15447;50.828;4.406;2023-09-30T18:19:16;19.40;99.90
28159;DHT22;15447;50.828;4.406;2023-09-30T18:21:43;19.50;99.90
28159;DHT22;15447;50.828;4.406;2023-09-30T18:24:08;19.40;99.90
28159;DHT22;15447;50.828;4.406;2023-09-30T18:26:34;19.30;99.90
28159;DHT22;15447;50.828;4.406;2023-09-30T18:29:01;19.20;99.90
28159;DHT22;15447;50.828;4.406;2023-09-30T18:31:26;19.30;99.90
28159;DHT22;15447;50.828;4.406;2023-09-30T18:33:52;19.30;99.90
28159;DHT22;15447;50.828;4.406;2023-09-30T18:36:21;19.30;99.90
28159;DHT22;15447;50.828;4.406;2023-09-30T18:38:46;19.20;99.90
28159;DHT22;15447;50.828;4.406;2023-09-30T18:41:13;19.00;99.90
28159;DHT22;15447;50.828;4.406;2023-09-30T18:43:44;18.90;99.90
28159;DHT22;15447;50.828;4.406;2023-09-30T18:46:10;18.80;99.90
28159;DHT22;15447;50.828;4.406;2023-09-30T18:48:40;18.60;99.90
28159;DHT22;15447;50.828;4.406;2023-09-30T18:51:07;18.40;99.90
28159;DHT22;15447;50.828;4.406;2023-09-30T18:53:39;18.20;99.90
28159;DHT22;15447;50.828;4.406;2023-09-30T18:56:05;18.10;99.90
28159;DHT22;15447;50.828;4.406;2023-09-30T18:58:34;18.00;99.90
28159;DHT22;15447;50.828;4.406;2023-09-30T19:01:00;18.10;99.90
28159;DHT22;15447;50.828;4.406;2023-09-30T19:03:26;18.00;99.90
28159;DHT22;15447;50.828;4.406;2023-09-30T19:05:52;18.00;99.90
28159;DHT22;15447;50.828;4.406;2023-09-30T19:08:24;18.10;99.90
28159;DHT22;15447;50.828;4.406;2023-09-30T19:10:49;18.00;99.90
28159;DHT22;15447;50.828;4.406;2023-09-30T19:13:15;18.10;99.90
28159;DHT22;15447;50.828;4.406;2023-09-30T19:15:41;18.00;99.90
28159;DHT22;15447;50.828;4.406;2023-09-30T19:18:08;18.00;99.90
28159;DHT22;15447;50.828;4.406;2023-09-30T19:20:34;18.00;99.90
28159;DHT22;15447;50.828;4.406;2023-09-30T19:23:00;18.00;99.90
28159;DHT22;15447;50.828;4.406;2023-09-30T19:25:26;18.00;99.90
28159;DHT22;15447;50.828;4.406;2023-09-30T19:27:51;18.00;99.90
28159;DHT22;15447;50.828;4.406;2023-09-30T19:30:17;17.90;99.90
28159;DHT22;15447;50.828;4.406;2023-09-30T19:32:44;17.90;99.90
28159;DHT22;15447;50.828;4.406;2023-09-30T19:35:16;17.80;99.90
28159;DHT22;15447;50.828;4.406;2023-09-30T19:37:45;17.80;99.90
28159;DHT22;15447;50.828;4.406;2023-09-30T19:40:11;17.80;99.90
28159;DHT22;15447;50.828;4.406;2023-09-30T19:42:37;17.70;99.90
28159;DHT22;15447;50.828;4.406;2023-09-30T19:45:05;17.70;99.90
28159;DHT22;15447;50.828;4.406;2023-09-30T19:47:31;17.70;99.90
28159;DHT22;15447;50.828;4.406;2023-09-30T19:49:57;17.70;99.90
28159;DHT22;15447;50.828;4.406;2023-09-30T19:52:22;17.70;99.90
28159;DHT22;15447;50.828;4.406;2023-09-30T19:54:54;17.70;99.90
28159;DHT22;15447;50.828;4.406;2023-09-30T19:57:20;17.60;99.90
28159;DHT22;15447;50.828;4.406;2023-09-30T19:59:45;17.60;99.90
28159;DHT22;15447;50.828;4.406;2023-09-30T20:02:14;17.60;99.90
28159;DHT22;15447;50.828;4.406;2023-09-30T20:04:42;17.60;99.90
28159;DHT22;15447;50.828;4.406;2023-09-30T20:07:13;17.60;99.90
28159;DHT22;15447;50.828;4.406;2023-09-30T20:09:39;17.60;99.90
28159;DHT22;15447;50.828;4.406;2023-09-30T20:12:08;17.60;99.90
28159;DHT22;15447;50.828;4.406;2023-09-30T20:14:38;17.50;99.90
28159;DHT22;15447;50.828;4.406;2023-09-30T20:17:04;17.50;99.90
28159;DHT22;15447;50.828;4.406;2023-09-30T20:19:30;17.50;99.90
28159;DHT22;15447;50.828;4.406;2023-09-30T20:21:58;17.50;99.90
28159;DHT22;15447;50.828;4.406;2023-09-30T20:24:26;17.50;99.90
28159;DHT22;15447;50.828;4.406;2023-09-30T20:26:59;17.50;99.90
28159;DHT22;15447;50.828;4.406;2023-09-30T20:29:27;17.50;99.90
28159;DHT22;15447;50.828;4.406;2023-09-30T20:31:57;17.50;99.90
28159;DHT22;15447;50.828;4.406;2023-09-30T20:34:25;17.50;99.90
28159;DHT22;15447;50.828;4.406;2023-09-30T20:36:51;17.50;99.90
28159;DHT22;15447;50.828;4.406;2023-09-30T20:39:20;17.40;99.90
28159;DHT22;15447;50.828;4.406;2023-09-30T20:41:46;17.40;99.90
28159;DHT22;15447;50.828;4.406;2023-09-30T20:44:12;17.30;99.90
28159;DHT22;15447;50.828;4.406;2023-09-30T20:46:38;17.20;99.90
28159;DHT22;15447;50.828;4.406;2023-09-30T20:49:03;17.10;99.90
28159;DHT22;15447;50.828;4.406;2023-09-30T20:51:30;17.10;99.90
28159;DHT22;15447;50.828;4.406;2023-09-30T20:53:57;17.10;99.90
28159;DHT22;15447;50.828;4.406;2023-09-30T20:56:23;17.00;99.90
28159;DHT22;15447;50.828;4.406;2023-09-30T20:58:48;17.00;99.90
28159;DHT22;15447;50.828;4.406;2023-09-30T21:01:15;17.10;99.90
28159;DHT22;15447;50.828;4.406;2023-09-30T21:03:42;17.00;99.90
28159;DHT22;15447;50.828;4.406;2023-09-30T21:06:08;17.00;99.90
28159;DHT22;15447;50.828;4.406;2023-09-30T21:08:34;17.00;99.90
28159;DHT22;15447;50.828;4.406;2023-09-30T21:11:02;16.90;99.90
28159;DHT22;15447;50.828;4.406;2023-09-30T21:13:28;16.90;99.90
28159;DHT22;15447;50.828;4.406;2023-09-30T21:15:54;16.90;99.90
28159;DHT22;15447;50.828;4.406;2023-09-30T21:18:21;16.90;99.90
28159;DHT22;15447;50.828;4.406;2023-09-30T21:20:47;16.90;99.90
28159;DHT22;15447;50.828;4.406;2023-09-30T21:23:13;16.80;99.90
28159;DHT22;15447;50.828;4.406;2023-09-30T21:25:39;16.80;99.90
28159;DHT22;15447;50.828;4.406;2023-09-30T21:28:05;16.80;99.90